createdAt,value
2018-06-22T00:00:24.747Z,49.50
2018-06-22T00:02:56.309Z,49.30
2018-06-22T00:05:27.881Z,48.80
2018-06-22T00:07:59.497Z,49.30
2018-06-22T00:10:30.993Z,49.40
2018-06-22T00:13:02.533Z,50.00
2018-06-22T00:15:34.173Z,50.40
2018-06-22T00:18:05.753Z,50.40
2018-06-22T00:20:37.205Z,50.30
2018-06-22T00:23:08.838Z,50.50
2018-06-22T00:25:40.440Z,50.80
2018-06-22T00:28:12.049Z,52.40
2018-06-22T00:30:43.653Z,52.60
2018-06-22T00:33:15.229Z,53.60
2018-06-22T00:35:46.858Z,52.20
2018-06-22T00:38:18.572Z,52.30
2018-06-22T00:40:50.093Z,52.30
2018-06-22T00:43:21.661Z,52.70
2018-06-22T00:45:53.272Z,52.50
2018-06-22T00:48:24.889Z,52.80
2018-06-22T00:50:56.444Z,52.70
2018-06-22T00:58:40.721Z,53.50
2018-06-22T01:01:12.248Z,53.20
2018-06-22T01:03:43.843Z,53.10
2018-06-22T01:06:15.437Z,53.10
2018-06-22T01:08:47.050Z,53.10
2018-06-22T01:11:18.534Z,53.30
2018-06-22T01:13:50.154Z,53.30
2018-06-22T01:16:21.543Z,53.40
2018-06-22T01:18:53.256Z,53.70
2018-06-22T01:21:24.923Z,53.70
2018-06-22T01:23:56.569Z,53.50
2018-06-22T01:26:28.246Z,53.50
2018-06-22T01:29:04.664Z,54.00
2018-06-22T01:31:36.304Z,53.50
2018-06-22T01:34:07.914Z,53.70
2018-06-22T01:36:39.532Z,53.70
2018-06-22T01:39:11.115Z,54.30
2018-06-22T01:41:42.729Z,54.20
2018-06-22T01:44:14.340Z,54.20
2018-06-22T01:46:45.951Z,54.50
2018-06-22T01:49:17.606Z,55.20
2018-06-22T01:51:49.185Z,54.80
2018-06-22T01:54:20.920Z,54.90
2018-06-22T01:56:52.500Z,55.00
2018-06-22T01:59:24.274Z,55.80
2018-06-22T02:01:56.090Z,55.40
2018-06-22T02:04:27.794Z,55.40
2018-06-22T02:06:59.298Z,55.70
2018-06-22T02:09:30.934Z,55.90
2018-06-22T02:12:02.568Z,56.10
2018-06-22T02:14:34.223Z,56.40
2018-06-22T02:17:05.933Z,56.40
2018-06-22T02:19:37.568Z,56.70
2018-06-22T02:22:09.299Z,56.80
2018-06-22T02:24:40.874Z,57.00
2018-06-22T02:27:12.598Z,57.10
2018-06-22T02:32:15.399Z,57.40
2018-06-22T02:34:47.088Z,57.20
2018-06-22T02:37:18.665Z,57.60
2018-06-22T02:39:50.273Z,57.20
2018-06-22T02:42:21.928Z,57.10
2018-06-22T02:44:53.574Z,57.00
2018-06-22T02:47:25.094Z,57.00
2018-06-22T02:49:56.789Z,57.00
2018-06-22T02:52:28.402Z,57.70
2018-06-22T02:55:00.213Z,57.20
2018-06-22T02:57:31.746Z,57.10
2018-06-22T03:00:03.419Z,57.20
2018-06-22T03:02:34.928Z,57.30
2018-06-22T03:05:06.832Z,57.60
2018-06-22T03:07:38.487Z,57.70
2018-06-22T03:10:10.138Z,58.10
2018-06-22T03:12:41.642Z,58.00
2018-06-22T03:15:13.354Z,58.70
2018-06-22T03:17:44.861Z,59.00
2018-06-22T03:20:16.498Z,60.00
2018-06-22T03:22:48.127Z,59.80
2018-06-22T03:25:19.770Z,60.40
2018-06-22T03:27:51.290Z,60.70
2018-06-22T03:30:22.908Z,61.00
2018-06-22T03:32:55.686Z,60.80
2018-06-22T03:35:27.633Z,60.70
2018-06-22T03:37:59.354Z,60.90
2018-06-22T03:40:31.001Z,60.70
2018-06-22T03:43:03.480Z,60.50
2018-06-22T03:45:35.208Z,60.70
2018-06-22T03:48:06.896Z,60.90
2018-06-22T03:50:38.484Z,60.90
2018-06-22T03:53:10.031Z,60.90
2018-06-22T03:55:41.695Z,60.90
2018-06-22T03:58:13.214Z,60.90
2018-06-22T04:00:44.910Z,61.10
2018-06-22T04:03:16.582Z,61.70
2018-06-22T04:05:48.145Z,61.60
2018-06-22T04:08:19.768Z,61.60
2018-06-22T04:10:51.364Z,61.00
2018-06-22T04:13:23.059Z,61.00
2018-06-22T04:15:54.747Z,60.70
2018-06-22T04:18:26.289Z,60.90
2018-06-22T04:20:58.018Z,60.90
2018-06-22T04:23:29.596Z,60.90
2018-06-22T04:26:01.374Z,60.60
2018-06-22T04:28:32.908Z,61.30
2018-06-22T04:31:04.583Z,61.00
2018-06-22T04:33:36.241Z,61.10
2018-06-22T04:36:07.829Z,61.20
2018-06-22T04:38:39.593Z,61.60
2018-06-22T04:41:11.236Z,61.30
2018-06-22T04:43:42.927Z,61.10
2018-06-22T04:46:14.626Z,61.40
2018-06-22T04:48:46.251Z,61.40
2018-06-22T04:51:17.830Z,61.50
2018-06-22T04:53:49.454Z,61.60
2018-06-22T04:56:21.056Z,61.50
2018-06-22T04:58:52.761Z,61.30
2018-06-22T05:01:24.393Z,61.40
2018-06-22T05:03:56.078Z,61.10
2018-06-22T05:06:27.713Z,60.40
2018-06-22T05:08:59.276Z,60.40
2018-06-22T05:11:30.910Z,60.30
2018-06-22T05:14:02.690Z,60.00
2018-06-22T05:16:34.361Z,60.20
2018-06-22T05:19:06.098Z,60.00
2018-06-22T05:21:37.760Z,59.80
2018-06-22T05:24:09.527Z,59.30
2018-06-22T05:26:41.149Z,59.30
2018-06-22T05:29:12.738Z,59.30
2018-06-22T05:31:44.452Z,59.40
2018-06-22T05:34:15.933Z,60.00
2018-06-22T05:36:47.776Z,59.90
2018-06-22T05:39:19.669Z,60.20
2018-06-22T05:41:51.442Z,59.70
2018-06-22T05:44:23.093Z,59.80
2018-06-22T05:46:54.605Z,59.60
2018-06-22T05:49:26.206Z,59.30
2018-06-22T05:51:57.898Z,59.10
2018-06-22T05:54:29.510Z,58.60
2018-06-22T05:57:01.103Z,58.60
2018-06-22T06:02:03.629Z,58.20
2018-06-22T06:04:35.261Z,58.40
2018-06-22T06:07:06.379Z,58.20
2018-06-22T06:09:38.162Z,58.40
2018-06-22T06:12:09.920Z,58.00
2018-06-22T06:14:41.593Z,57.30
2018-06-22T06:17:13.335Z,57.70
2018-06-22T06:19:45.096Z,57.80
2018-06-22T06:22:16.637Z,58.00
2018-06-22T06:24:48.309Z,57.60
2018-06-22T06:27:20.073Z,56.80
2018-06-22T06:29:51.833Z,56.70
2018-06-22T06:32:23.325Z,56.70
2018-06-22T06:34:55.041Z,56.00
2018-06-22T06:37:26.707Z,55.20
2018-06-22T06:39:58.299Z,55.50
2018-06-22T06:42:29.849Z,54.90
2018-06-22T06:45:01.461Z,55.00
2018-06-22T06:50:04.223Z,52.70
2018-06-22T06:52:35.788Z,53.60
2018-06-22T06:55:07.697Z,54.20
2018-06-22T06:57:39.176Z,53.90
2018-06-22T07:00:11.160Z,53.90
2018-06-22T07:02:42.804Z,53.40
2018-06-22T07:05:14.459Z,53.30
2018-06-22T07:07:46.119Z,53.30
2018-06-22T07:10:17.875Z,53.70
2018-06-22T07:12:49.540Z,52.60
2018-06-22T07:15:21.238Z,51.80
2018-06-22T07:17:52.887Z,52.00
2018-06-22T07:20:25.632Z,52.30
2018-06-22T07:22:57.201Z,52.60
2018-06-22T07:25:28.826Z,52.60
2018-06-22T07:28:00.520Z,52.90
2018-06-22T07:30:32.094Z,52.80
2018-06-22T07:33:03.813Z,52.60
2018-06-22T07:35:35.513Z,53.10
2018-06-22T07:38:07.045Z,52.60
2018-06-22T07:40:38.822Z,52.20
2018-06-22T07:43:10.575Z,51.70
2018-06-22T07:45:42.253Z,51.40
2018-06-22T07:48:13.906Z,52.30
2018-06-22T07:50:45.546Z,50.10
2018-06-22T07:53:17.230Z,50.00
2018-06-22T07:55:48.783Z,49.40
2018-06-22T07:58:20.371Z,49.50
2018-06-22T08:00:51.894Z,49.00
2018-06-22T08:03:23.623Z,48.90
2018-06-22T08:05:55.206Z,49.20
2018-06-22T08:08:26.835Z,50.20
2018-06-22T08:10:58.582Z,49.10
2018-06-22T08:13:30.201Z,49.00
2018-06-22T08:16:01.832Z,47.60
2018-06-22T08:18:33.445Z,47.90
2018-06-22T08:21:05.125Z,47.00
2018-06-22T08:23:36.700Z,47.50
2018-06-22T08:26:08.328Z,47.80
2018-06-22T08:28:39.820Z,48.10
2018-06-22T08:31:11.537Z,48.60
2018-06-22T08:33:43.043Z,48.60
2018-06-22T08:36:14.646Z,49.30
2018-06-22T08:38:46.356Z,49.00
2018-06-22T08:41:17.957Z,49.10
2018-06-22T08:46:20.622Z,49.60
2018-06-22T08:48:52.291Z,50.20
2018-06-22T08:51:23.863Z,49.70
2018-06-22T08:53:55.477Z,50.40
2018-06-22T08:56:27.106Z,51.00
2018-06-22T08:58:58.693Z,50.90
2018-06-22T09:01:30.295Z,51.40
2018-06-22T09:04:01.972Z,51.10
2018-06-22T09:06:33.660Z,51.40
2018-06-22T09:09:06.930Z,51.50
2018-06-22T09:11:38.649Z,51.70
2018-06-22T09:14:10.150Z,51.20
2018-06-22T09:16:41.876Z,51.80
2018-06-22T09:19:13.378Z,52.00
2018-06-22T09:21:45.010Z,52.50
2018-06-22T09:24:16.577Z,52.80
2018-06-22T09:26:48.293Z,53.10
2018-06-22T09:29:19.957Z,53.30
2018-06-22T09:34:22.522Z,54.60
2018-06-22T09:36:54.255Z,56.20
2018-06-22T09:39:25.838Z,58.50
2018-06-22T09:41:57.569Z,58.40
2018-06-22T09:44:39.075Z,60.70
2018-06-22T09:47:10.797Z,61.90
2018-06-22T09:49:42.512Z,61.60
2018-06-22T09:52:14.106Z,64.60
2018-06-22T09:54:45.839Z,67.00
2018-06-22T09:57:17.409Z,65.70
2018-06-22T09:59:48.896Z,66.50
2018-06-22T10:02:20.369Z,67.10
2018-06-22T10:04:52.101Z,67.50
2018-06-22T10:07:23.595Z,69.00
2018-06-22T10:09:55.131Z,70.80
2018-06-22T10:12:26.813Z,69.20
2018-06-22T10:14:58.350Z,70.10
2018-06-22T10:17:30.025Z,69.50
2018-06-22T10:20:01.676Z,69.30
2018-06-22T10:22:33.259Z,68.90
2018-06-22T10:25:05.066Z,69.20
2018-06-22T10:27:36.747Z,68.60
2018-06-22T10:30:08.466Z,67.50
2018-06-22T10:32:40.054Z,67.30
2018-06-22T10:35:11.672Z,65.80
2018-06-22T10:37:43.424Z,64.90
2018-06-22T10:40:15.020Z,64.60
2018-06-22T10:42:46.688Z,62.90
2018-06-22T10:45:18.444Z,62.30
2018-06-22T10:47:50.294Z,61.80
2018-06-22T10:50:22.069Z,61.50
2018-06-22T10:52:53.687Z,58.90
2018-06-22T10:55:25.331Z,58.20
2018-06-22T10:57:57.045Z,58.50
2018-06-22T11:00:28.671Z,59.10
2018-06-22T11:03:00.404Z,59.40
2018-06-22T11:05:31.990Z,60.50
2018-06-22T11:08:03.672Z,60.30
2018-06-22T11:10:35.198Z,59.80
2018-06-22T11:13:06.771Z,59.60
2018-06-22T11:15:38.333Z,59.80
2018-06-22T11:18:10.035Z,58.80
2018-06-22T11:20:41.617Z,58.00
2018-06-22T11:23:13.302Z,57.70
2018-06-22T11:25:44.794Z,56.80
2018-06-22T11:28:16.427Z,56.60
2018-06-22T11:30:48.088Z,56.60
2018-06-22T11:33:19.935Z,56.70
2018-06-22T11:35:51.520Z,57.30
2018-06-22T11:38:23.801Z,58.90
2018-06-22T11:40:55.385Z,60.10
2018-06-22T11:43:26.954Z,61.00
2018-06-22T11:45:58.689Z,62.20
2018-06-22T11:48:30.305Z,60.90
2018-06-22T11:51:02.090Z,59.60
2018-06-22T11:53:33.682Z,57.80
2018-06-22T11:56:05.426Z,55.30
2018-06-22T11:58:37.156Z,53.60
2018-06-22T12:01:08.637Z,54.10
2018-06-22T12:03:40.314Z,54.20
2018-06-22T12:06:11.824Z,52.60
2018-06-22T12:08:43.513Z,53.50
2018-06-22T12:11:15.038Z,50.40
2018-06-22T12:13:46.623Z,49.70
2018-06-22T12:16:18.265Z,50.90
2018-06-22T12:18:49.948Z,51.00
2018-06-22T12:21:21.481Z,52.10
2018-06-22T12:23:53.146Z,52.90
2018-06-22T12:26:24.837Z,52.40
2018-06-22T12:28:56.678Z,52.10
2018-06-22T12:31:28.284Z,52.40
2018-06-22T12:33:59.896Z,52.20
2018-06-22T12:36:31.533Z,51.40
2018-06-22T12:39:03.217Z,51.60
2018-06-22T12:41:34.805Z,51.40
2018-06-22T12:44:06.603Z,51.20
2018-06-22T12:46:38.220Z,50.90
2018-06-22T12:49:09.932Z,50.70
2018-06-22T12:51:41.466Z,48.70
2018-06-22T12:54:13.018Z,48.80
2018-06-22T12:56:44.637Z,47.10
2018-06-22T12:59:16.235Z,47.40
2018-06-22T13:01:47.852Z,48.40
2018-06-22T13:04:19.465Z,48.60
2018-06-22T13:06:50.991Z,49.30
2018-06-22T13:09:22.664Z,49.00
2018-06-22T13:11:54.214Z,48.90
2018-06-22T13:14:25.920Z,48.90
2018-06-22T13:16:57.648Z,49.20
2018-06-22T13:19:29.393Z,47.90
2018-06-22T13:22:01.042Z,47.90
2018-06-22T13:24:32.629Z,47.30
2018-06-22T13:27:04.221Z,47.70
2018-06-22T13:29:35.905Z,47.40
2018-06-22T13:32:07.418Z,49.90
2018-06-22T13:34:39.047Z,55.50
2018-06-22T13:37:10.785Z,61.50
2018-06-22T13:39:42.438Z,63.60
2018-06-22T13:42:14.104Z,65.60
2018-06-22T13:44:45.782Z,67.50
2018-06-22T13:47:17.496Z,67.20
2018-06-22T13:49:49.085Z,67.50
2018-06-22T13:52:20.784Z,69.80
2018-06-22T13:54:52.365Z,69.30
2018-06-22T13:57:23.986Z,68.70
2018-06-22T13:59:55.744Z,68.90
2018-06-22T14:02:27.330Z,67.70
2018-06-22T14:05:03.901Z,68.10
2018-06-22T14:07:35.676Z,66.90
2018-06-22T14:10:07.421Z,67.30
2018-06-22T14:12:39.087Z,67.70
2018-06-22T14:15:10.776Z,68.40
2018-06-22T14:17:42.349Z,67.20
2018-06-22T14:20:14.021Z,66.80
2018-06-22T14:22:45.671Z,66.00
2018-06-22T14:25:17.296Z,67.70
2018-06-22T14:27:48.885Z,68.80
2018-06-22T14:30:20.579Z,68.50
2018-06-22T14:32:52.109Z,67.40
2018-06-22T14:35:23.847Z,61.10
2018-06-22T14:37:55.541Z,61.70
2018-06-22T14:40:27.219Z,59.40
2018-06-22T14:42:58.735Z,59.70
2018-06-22T14:45:30.421Z,59.80
2018-06-22T14:48:02.087Z,57.40
2018-06-22T14:50:33.650Z,56.70
2018-06-22T14:53:05.443Z,58.50
2018-06-22T14:55:41.902Z,58.20
2018-06-22T14:58:18.373Z,56.10
2018-06-22T15:00:55.127Z,58.00
2018-06-22T15:03:31.752Z,58.70
2018-06-22T15:06:08.285Z,58.60
2018-06-22T15:08:39.957Z,59.30
2018-06-22T15:11:11.662Z,58.40
2018-06-22T15:13:43.382Z,57.10
2018-06-22T15:16:14.902Z,57.20
2018-06-22T15:18:47.674Z,57.00
2018-06-22T15:21:19.411Z,56.80
2018-06-22T15:23:51.178Z,55.30
2018-06-22T15:26:22.826Z,55.70
2018-06-22T15:28:54.399Z,55.50
2018-06-22T15:31:25.932Z,56.10
2018-06-22T15:34:02.486Z,56.60
2018-06-22T15:36:38.977Z,56.90
2018-06-22T15:39:16.041Z,56.70
2018-06-22T15:41:52.494Z,56.40
2018-06-22T15:44:29.068Z,55.00
2018-06-22T15:47:05.694Z,55.10
2018-06-22T15:49:42.191Z,54.90
2018-06-22T15:52:18.649Z,55.00
2018-06-22T15:54:55.284Z,54.60
2018-06-22T15:59:58.264Z,54.50
2018-06-22T16:02:34.762Z,54.90
2018-06-22T16:05:06.575Z,55.00
2018-06-22T16:07:38.314Z,54.50
2018-06-22T16:10:09.947Z,54.80
2018-06-22T16:15:19.653Z,55.50
2018-06-22T16:17:56.378Z,56.00
2018-06-22T16:20:32.910Z,55.70
2018-06-22T16:23:09.473Z,55.80
2018-06-22T16:25:45.909Z,55.60
2018-06-22T16:28:17.545Z,55.20
2018-06-22T16:30:49.124Z,55.60
2018-06-22T16:33:20.855Z,55.70
2018-06-22T16:35:52.511Z,56.20
2018-06-22T16:38:24.233Z,56.40
2018-06-22T16:40:55.856Z,56.00
2018-06-22T16:43:27.622Z,56.70
2018-06-22T16:45:59.321Z,56.60
2018-06-22T16:48:31.001Z,57.80
2018-06-22T16:51:02.610Z,61.00
2018-06-22T16:53:34.401Z,63.50
2018-06-22T16:56:06.988Z,65.10
2018-06-22T16:58:39.344Z,65.70
2018-06-22T17:01:12.158Z,66.60
2018-06-22T17:03:43.728Z,67.30
2018-06-22T17:06:15.468Z,68.00
2018-06-22T17:09:49.967Z,68.40
2018-06-22T17:12:26.308Z,68.80
2018-06-22T17:15:02.885Z,69.90
2018-06-22T17:17:39.338Z,70.40
2018-06-22T17:20:10.933Z,69.10
2018-06-22T17:22:42.510Z,68.30
2018-06-22T17:25:14.408Z,69.20
2018-06-22T17:27:46.363Z,69.20
2018-06-22T17:30:18.150Z,69.60
2018-06-22T17:32:49.773Z,68.60
2018-06-22T17:35:21.261Z,69.00
2018-06-22T17:37:52.888Z,68.40
2018-06-22T17:40:24.642Z,70.00
2018-06-22T17:42:56.369Z,70.70
2018-06-22T17:45:28.007Z,70.80
2018-06-22T17:47:59.694Z,70.50
2018-06-22T17:50:31.326Z,71.20
2018-06-22T17:53:03.224Z,70.70
2018-06-22T17:55:34.716Z,71.50
2018-06-22T17:58:06.524Z,70.70
2018-06-22T18:00:43.041Z,70.40
2018-06-22T18:03:19.644Z,70.80
2018-06-22T18:05:56.333Z,70.60
2018-06-22T18:08:33.007Z,70.80
2018-06-22T18:11:09.886Z,71.10
2018-06-22T18:13:41.561Z,70.80
2018-06-22T18:18:44.042Z,70.00
2018-06-22T18:21:15.653Z,70.90
2018-06-22T18:23:47.554Z,70.20
2018-06-22T18:26:19.091Z,70.70
2018-06-22T18:28:50.660Z,70.90
2018-06-22T18:31:22.194Z,71.80
2018-06-22T18:33:53.810Z,72.00
2018-06-22T18:36:25.492Z,71.90
2018-06-22T18:38:57.121Z,71.80
2018-06-22T18:41:28.803Z,71.90
2018-06-22T18:44:01.172Z,71.20
2018-06-22T18:46:32.976Z,71.30
2018-06-22T18:49:04.645Z,71.70
2018-06-22T18:51:36.204Z,72.50
2018-06-22T18:54:12.843Z,72.10
2018-06-22T18:56:49.655Z,72.60
2018-06-22T18:59:26.201Z,72.90
2018-06-22T19:02:02.642Z,72.70
2018-06-22T19:04:34.342Z,72.40
2018-06-22T19:07:05.933Z,72.20
2018-06-22T19:09:37.744Z,71.50
2018-06-22T19:12:09.503Z,71.30
2018-06-22T19:14:41.161Z,70.90
2018-06-22T19:17:12.826Z,69.80
2018-06-22T19:19:44.403Z,68.80
2018-06-22T19:22:15.987Z,68.60
2018-06-22T19:24:47.619Z,68.20
2018-06-22T19:27:19.445Z,67.80
2018-06-22T19:32:22.304Z,69.20
2018-06-22T19:34:58.889Z,67.90
2018-06-22T19:37:30.585Z,67.10
2018-06-22T19:40:02.233Z,65.90
2018-06-22T19:42:33.901Z,64.70
2018-06-22T19:45:10.769Z,64.00
2018-06-22T19:47:47.505Z,63.50
2018-06-22T19:50:24.251Z,63.20
2018-06-22T19:53:00.997Z,63.10
2018-06-22T19:55:32.857Z,63.00
2018-06-22T19:58:04.474Z,63.80
2018-06-22T20:00:36.146Z,62.70
2018-06-22T20:03:07.835Z,62.60
2018-06-22T20:05:39.408Z,62.20
2018-06-22T20:08:11.101Z,62.10
2018-06-22T20:10:42.714Z,62.50
2018-06-22T20:13:14.400Z,62.50
2018-06-22T20:15:46.157Z,62.30
2018-06-22T20:18:17.729Z,62.80
2018-06-22T20:20:49.473Z,62.10
2018-06-22T20:23:21.064Z,62.00
2018-06-22T20:25:52.939Z,61.80
2018-06-22T20:28:24.493Z,61.70
2018-06-22T20:30:56.086Z,61.40
2018-06-22T20:33:27.779Z,61.50
2018-06-22T20:36:04.543Z,61.70
2018-06-22T20:38:41.298Z,62.10
2018-06-22T20:41:18.329Z,61.80
2018-06-22T20:43:55.302Z,61.80
2018-06-22T20:46:31.861Z,61.80
2018-06-22T20:49:08.533Z,62.00
2018-06-22T20:51:45.188Z,62.20
2018-06-22T20:54:16.878Z,61.90
2018-06-22T20:56:48.610Z,62.00
2018-06-22T20:59:20.207Z,62.10
2018-06-22T21:01:51.966Z,62.60
2018-06-22T21:04:23.689Z,61.40
2018-06-22T21:06:55.386Z,61.50
2018-06-22T21:11:58.084Z,62.40
2018-06-22T21:14:29.654Z,61.80
2018-06-22T21:17:01.299Z,61.70
2018-06-22T21:19:32.834Z,61.70
2018-06-22T21:22:09.565Z,61.50
2018-06-22T21:24:41.880Z,61.60
2018-06-22T21:27:18.314Z,61.80
2018-06-22T21:29:54.972Z,61.70
2018-06-22T21:32:31.356Z,61.50
2018-06-22T21:35:08.237Z,61.90
2018-06-22T21:37:44.726Z,62.10
2018-06-22T21:40:16.312Z,62.00
2018-06-22T21:42:48.321Z,62.10
2018-06-22T21:45:20.080Z,62.10
2018-06-22T21:47:51.677Z,62.00
2018-06-22T21:50:23.193Z,62.10
2018-06-22T21:52:54.898Z,62.30
2018-06-22T21:55:26.564Z,62.50
2018-06-22T21:57:58.314Z,62.30
2018-06-22T22:00:34.599Z,62.30
2018-06-22T22:03:06.276Z,62.60
2018-06-22T22:05:38.056Z,62.90
2018-06-22T22:08:09.750Z,62.90
2018-06-22T22:10:46.217Z,62.60
2018-06-22T22:13:17.766Z,63.00
2018-06-22T22:15:49.422Z,63.10
2018-06-22T22:18:21.088Z,63.50
2018-06-22T22:20:52.711Z,63.70
2018-06-22T22:23:24.317Z,64.00
2018-06-22T22:25:55.910Z,64.20
2018-06-22T22:28:27.501Z,64.40
2018-06-22T22:30:59.158Z,64.60
2018-06-22T22:33:30.718Z,64.60
2018-06-22T22:36:02.330Z,64.70
2018-06-22T22:38:33.930Z,64.70
2018-06-22T22:41:05.469Z,64.60
2018-06-22T22:43:37.202Z,64.60
2018-06-22T22:46:09.106Z,64.80
2018-06-22T22:48:40.789Z,64.70
2018-06-22T22:51:12.725Z,64.80
2018-06-22T22:53:44.524Z,65.00
2018-06-22T22:56:16.094Z,65.90
2018-06-22T22:58:47.676Z,65.30
2018-06-22T23:01:19.303Z,65.70
2018-06-22T23:03:50.957Z,65.70
2018-06-22T23:06:22.633Z,65.70
2018-06-22T23:08:54.430Z,66.00
2018-06-22T23:11:26.067Z,66.50
2018-06-22T23:13:57.732Z,66.10
2018-06-22T23:16:29.364Z,66.40
2018-06-22T23:19:01.053Z,66.90
2018-06-22T23:21:32.556Z,67.10
2018-06-22T23:24:04.286Z,67.60
2018-06-22T23:26:36.024Z,68.80
2018-06-22T23:29:07.577Z,68.50
2018-06-22T23:31:39.204Z,68.90
2018-06-22T23:34:10.807Z,69.80
2018-06-22T23:36:42.393Z,68.90
2018-06-22T23:39:14.048Z,68.70
2018-06-22T23:41:45.710Z,68.80
2018-06-22T23:44:17.301Z,69.00
2018-06-22T23:46:49.065Z,69.20
2018-06-22T23:49:20.842Z,69.40
2018-06-22T23:51:52.365Z,70.10
2018-06-22T23:54:23.988Z,70.20
2018-06-22T23:56:55.640Z,70.50
2018-06-22T23:59:27.415Z,70.90
